Latest Weather Observations for Narrabri

IDN60801

Issued at 6:35 am EDT Sunday 26 October 2014 (issued every 30 minutes, with the page automatically refreshed every 10 minutes)

About weather observations | Map of weather stations | Latest weather observations for NSW | Other Formats
Station Details ID: 054038 Name: NARRABRI AIRPORT AWS Lat: -30.32 Lon: 149.83 Height: 229.02 m
Data from the previous 72 hours. | See also: Recent months at Narrabri
Date/Time
EDT
Temp
°C
App
Temp
°C
Dew
Point
Rel
Hum
%
Delta-T
°C
Wind Press
QNH
hPa
Press
MSL
hPa
Rain
since 9 am
mm
Dir
 
Spd
km/h
Gust
km/h
Spd
kts
Gust
kts
26/06:30am 17.5 16.5 5.8 46 5.8 NE 0 0 0 0 1013.5 1012.8 0.0
26/06:00am 18.1 15.7 5.3 43 6.3 S 7 7 4 4 1013.4 1012.7 0.0
26/05:30am 19.0 16.4 4.4 38 7.1 S 7 7 4 4 1013.0 1012.2 0.0
26/05:00am 21.1 18.1 4.2 33 8.3 ENE 9 11 5 6 1013.0 1012.2 0.0
26/04:30am 21.4 17.8 4.9 34 8.2 ENE 13 17 7 9 1012.9 1012.1 0.0
26/04:00am 21.2 18.7 4.7 34 8.2 SE 7 11 4 6 1013.1 1012.3 0.0
26/03:30am 22.5 20.0 5.0 32 8.8 ESE 7 9 4 5 1013.3 1012.5 0.0
26/03:00am 24.2 19.9 5.1 29 9.7 E 17 22 9 12 1013.8 1013.1 0.0
26/02:30am 23.5 18.4 5.9 32 9.0 E 22 26 12 14 1014.2 1013.5 0.0
26/02:00am 23.3 19.6 4.3 29 9.5 E 13 17 7 9 1014.8 1014.1 0.0
26/01:30am 24.5 22.0 4.8 28 10.0 SSW 7 11 4 6 1015.5 1014.8 0.0
26/01:00am 24.0 18.4 5.4 30 9.5 S 24 35 13 19 1015.1 1014.4 0.0
26/12:30am 25.3 21.7 5.0 27 10.4 SE 13 17 7 9 1014.5 1013.8 0.0
26/12:00am 23.5 19.3 4.0 28 9.7 SSE 15 20 8 11 1014.5 1013.8 0.0
 
Date/Time
EDT
Temp
°C
App
Temp
°C
Dew
Point
Rel
Hum
%
Delta-T
°C
Wind Press
QNH
hPa
Press
MSL
hPa
Rain
since 9 am
mm
Dir
 
Spd
km/h
Gust
km/h
Spd
kts
Gust
kts
25/11:30pm 25.8 21.5 3.1 23 11.2 E 15 17 8 9 1014.4 1013.7 0.0
25/11:00pm 24.5 20.6 3.2 25 10.5 ENE 13 17 7 9 1014.4 1013.7 0.0
25/10:30pm 26.0 21.3 3.3 23 11.3 E 17 19 9 10 1014.3 1013.6 0.0
25/10:00pm 26.1 21.8 3.4 23 11.3 ENE 15 17 8 9 1014.4 1013.7 0.0
25/09:30pm 26.6 21.9 3.2 22 11.7 E 17 19 9 10 1014.3 1013.6 0.0
25/09:00pm 26.7 22.5 3.9 23 11.5 E 15 17 8 9 1014.4 1013.7 0.0
25/08:30pm 28.1 23.8 3.0 20 12.6 ENE 15 17 8 9 1014.0 1013.3 0.0
25/08:00pm 28.2 24.5 2.4 19 12.8 E 11 15 6 8 1013.8 1013.1 0.0
25/07:30pm 29.0 25.7 2.3 18 13.3 ENE 9 11 5 6 1013.5 1012.8 0.0
25/07:00pm 32.8 29.0 1.8 14 15.7 E 11 13 6 7 1013.2 1012.4 0.0
25/06:30pm 34.8 31.1 0.0 11 17.3 E 9 11 5 6 1013.1 1012.3 0.0
25/06:00pm 34.8 31.1 0.0 11 17.3 ESE 9 17 5 9 1013.0 1012.2 0.0
25/05:30pm 36.1 32.7 -0.3 10 18.2 ENE 7 15 4 8 1013.0 1012.2 0.0
25/05:00pm 35.5 32.3 0.6 11 17.6 NW 7 13 4 7 1013.1 1012.3 0.0
25/04:30pm 35.0 32.3 0.2 11 17.4 NE 4 11 2 6 1013.2 1012.4 0.0
25/04:00pm 34.8 31.9 1.2 12 17.1 ENE 6 9 3 5 1013.4 1012.7 0.0
25/03:30pm 35.3 32.6 2.7 13 17.0 S 6 13 3 7 1013.6 1012.9 0.0
25/03:00pm 35.5 31.3 1.8 12 17.4 E 13 22 7 12 1013.9 1013.2 0.0
25/02:30pm 36.7 31.0 2.7 12 17.9 E 22 32 12 17 1014.1 1013.4 0.0
25/02:00pm 36.6 32.6 2.6 12 17.8 W 13 20 7 11 1014.7 1014.0 0.0
25/01:30pm 35.5 31.5 2.9 13 17.1 S 13 19 7 10 1015.5 1014.8 0.0
25/01:00pm 34.6 31.6 4.2 15 16.2 WNW 9 26 5 14 1015.9 1015.2 0.0
25/12:30pm 34.2 30.9 6.5 18 15.3 WSW 13 20 7 11 1016.5 1015.7 0.0
25/12:00pm 33.5 30.6 6.7 19 14.7 NNE 11 17 6 9 1017.2 1016.5 0.0
25/11:30am 32.0 29.2 7.0 21 13.7 W 11 19 6 10 1017.7 1017.0 0.0
25/11:00am 30.8 27.2 8.5 25 12.5 N 17 24 9 13 1018.1 1017.4 0.0
25/10:30am 30.2 26.2 9.1 27 11.9 N 20 26 11 14 1018.4 1017.7 0.0
25/10:00am 29.6 25.5 10.2 30 11.1 N 22 30 12 16 1018.5 1017.8 0.0
25/09:30am 28.6 24.0 9.8 31 10.6 N 24 30 13 16 1018.4 1017.7 0.0
25/09:00am 27.7 22.8 10.0 33 10.0 N 26 35 14 19 1018.2 1017.5 0.4
25/08:30am 27.3 22.4 10.1 34 9.7 N 26 35 14 19 1018.2 1017.5 0.4
25/08:00am 26.2 20.6 10.0 36 9.1 N 30 39 16 21 1017.8 1017.1 0.4
25/07:30am 25.4 20.4 9.7 37 8.7 N 26 33 14 18 1017.6 1016.9 0.4
25/07:00am 24.3 20.5 9.8 40 8.0 NNE 20 28 11 15 1017.1 1016.3 0.4
25/06:30am 22.9 20.2 9.0 41 7.5 ENE 13 20 7 11 1016.8 1016.0 0.4
25/06:00am 23.8 19.5 9.4 40 7.9 NNE 22 30 12 16 1016.4 1015.6 0.4
25/05:30am 23.8 19.6 9.8 41 7.7 NNE 22 28 12 15 1016.1 1015.4 0.4
25/05:00am 24.4 19.4 9.6 39 8.2 NNE 26 33 14 18 1015.9 1015.2 0.4
25/04:30am 24.6 19.5 9.3 38 8.4 NNE 26 33 14 18 1015.6 1014.9 0.4
25/04:00am 25.0 19.5 9.3 37 8.6 NNE 28 35 15 19 1015.4 1014.7 0.4
25/03:30am 25.5 19.9 8.9 35 9.1 N 28 39 15 21 1015.3 1014.6 0.4
25/03:00am 26.1 19.8 9.0 34 9.4 NNE 32 43 17 23 1015.2 1014.5 0.4
25/02:30am 26.4 20.7 8.4 32 9.8 NNE 28 39 15 21 1015.3 1014.6 0.4
25/02:00am 26.4 21.0 7.9 31 10.0 NNE 26 33 14 18 1015.4 1014.7 0.4
25/01:30am 26.2 21.2 8.2 32 9.8 N 24 30 13 16 1015.7 1015.0 0.4
25/01:00am 26.3 21.1 8.8 33 9.6 NNE 26 32 14 17 1015.7 1015.0 0.4
25/12:30am 24.3 21.2 8.7 37 8.5 N 15 19 8 10 1016.3 1015.5 0.4
25/12:00am 25.2 21.8 7.8 33 9.3 N 15 20 8 11 1016.5 1015.7 0.4
 
Date/Time
EDT
Temp
°C
App
Temp
°C
Dew
Point
Rel
Hum
%
Delta-T
°C
Wind Press
QNH
hPa
Press
MSL
hPa
Rain
since 9 am
mm
Dir
 
Spd
km/h
Gust
km/h
Spd
kts
Gust
kts
24/11:30pm 27.1 22.1 8.0 30 10.4 N 24 32 13 17 1016.3 1015.5 0.4
24/11:00pm 27.1 21.8 8.5 31 10.2 N 26 33 14 18 1015.9 1015.2 0.4
24/10:30pm 26.2 22.6 11.9 41 8.3 N 22 30 12 16 1015.9 1015.2 0.4
24/10:07pm 28.6 23.1 9.3 30 10.8 WSW 28 46 15 25 1017.6 1016.9 0.0
24/10:00pm 28.6 23.5 7.8 27 11.4 WSW 24 35 13 19 1017.0 1016.2 0.0
24/09:30pm 28.4 24.4 6.5 25 11.7 NNE 17 22 9 12 1015.2 1014.5 0.0
24/09:00pm 28.3 23.9 6.4 25 11.7 NNE 19 22 10 12 1014.5 1013.8 0.0
24/08:30pm 28.5 24.1 6.6 25 11.7 NNE 19 22 10 12 1014.5 1013.8 0.0
24/08:00pm 29.3 25.3 6.7 24 12.2 NNE 17 20 9 11 1014.4 1013.7 0.0
24/07:30pm 30.1 26.0 6.1 22 12.9 NNE 17 19 9 10 1014.2 1013.5 0.0
24/07:00pm 31.2 27.1 6.3 21 13.5 N 17 24 9 13 1014.1 1013.4 0.0
24/06:30pm 32.6 28.5 6.0 19 14.4 N 17 24 9 13 1014.1 1013.4 0.0
24/06:00pm 34.3 30.7 6.6 18 15.3 N 15 22 8 12 1014.0 1013.3 0.0
24/05:30pm 34.4 29.8 5.8 17 15.6 NNW 19 30 10 16 1014.2 1013.5 0.0
24/05:00pm 34.9 30.3 5.4 16 16.0 WNW 19 28 10 15 1014.5 1013.8 0.0
24/04:30pm 34.0 29.2 5.5 17 15.4 NNW 20 33 11 18 1014.7 1014.0 0.0
24/04:00pm 34.7 29.6 6.1 17 15.7 N 22 28 12 15 1014.9 1014.2 0.0
24/03:30pm 34.1 29.9 5.6 17 15.5 NNW 17 24 9 13 1015.6 1014.9 0.0
24/03:00pm 34.3 29.3 6.6 18 15.3 NNE 22 43 12 23 1016.0 1015.3 0.0
24/02:30pm 34.1 30.2 7.2 19 15.0 N 17 32 9 17 1016.6 1015.8 0.0
24/02:00pm 33.6 29.8 7.5 20 14.5 NNW 17 30 9 16 1017.2 1016.5 0.0
24/01:30pm 33.4 29.6 7.4 20 14.5 N 17 24 9 13 1018.0 1017.3 0.0
24/01:00pm 33.1 29.5 8.5 22 13.9 WNW 17 28 9 15 1018.4 1017.7 0.0
24/12:30pm 32.5 28.6 8.7 23 13.5 WNW 19 22 10 12 1018.8 1018.1 0.0
24/12:00pm 31.2 27.6 8.2 24 12.8 N 17 32 9 17 1019.3 1018.6 0.0
24/11:30am 31.0 27.6 9.3 26 12.3 NNW 17 24 9 13 1019.8 1019.1 0.0
24/11:00am 30.1 26.2 9.6 28 11.6 N 20 24 11 13 1020.5 1019.8 0.0
24/10:30am 29.4 26.8 9.5 29 11.2 N 13 24 7 13 1021.0 1020.3 0.0
24/10:00am 28.7 25.4 9.4 30 10.8 N 17 20 9 11 1020.9 1020.1 0.0
24/09:30am 28.2 25.3 9.5 31 10.5 N 15 22 8 12 1020.9 1020.1 0.0
24/09:00am 27.0 24.3 10.2 35 9.5 NNE 15 26 8 14 1020.9 1020.1 0.2
24/08:30am 24.5 23.1 10.8 42 7.7 E 9 13 5 7 1020.6 1019.9 0.2
24/08:00am 21.0 21.7 12.2 57 5.0 CALM 0 2 0 1 1020.7 1020.0 0.2
24/07:30am 19.8 18.0 12.1 61 4.3 S 13 17 7 9 1021.0 1020.3 0.2
24/07:00am 19.1 16.5 11.9 63 4.0 E 17 24 9 13 1020.1 1019.4 0.2
24/06:30am 19.0 15.1 12.0 64 3.9 SE 24 32 13 17 1020.6 1019.9 0.2
24/06:00am 18.9 16.9 11.5 62 4.1 SSE 13 20 7 11 1019.9 1019.2 0.0
24/05:30am 17.8 16.5 11.1 65 3.7 ENE 9 11 5 6 1019.0 1018.3 0.0
24/05:00am 17.5 15.7 10.9 65 3.6 E 11 13 6 7 1018.8 1018.1 0.0
24/04:30am 16.2 14.6 10.3 68 3.2 NE 9 13 5 7 1018.6 1017.9 0.0
24/04:00am 16.2 15.0 9.4 64 3.6 SSE 6 7 3 4 1018.5 1017.8 0.0
24/03:30am 17.9 16.2 10.0 60 4.2 S 9 9 5 5 1018.2 1017.5 0.0
24/03:00am 17.2 17.4 10.6 65 3.6 CALM 0 0 0 0 1018.3 1017.6 0.0
24/02:30am 16.8 15.4 9.5 62 3.9 NNW 7 11 4 6 1018.3 1017.6 0.0
24/02:00am 18.0 16.5 10.4 61 4.1 S 9 11 5 6 1018.5 1017.8 0.0
24/01:30am 18.8 17.0 9.3 54 5.1 S 9 11 5 6 1018.7 1018.0 0.0
24/01:00am 19.9 18.3 8.6 48 6.0 S 7 11 4 6 1019.0 1018.3 0.0
24/12:30am 21.8 20.2 8.7 43 7.0 SSW 7 9 4 5 1018.8 1018.1 0.0
24/12:00am 22.8 19.9 8.1 39 7.8 ENE 13 13 7 7 1018.8 1018.1 0.0
 
Date/Time
EDT
Temp
°C
App
Temp
°C
Dew
Point
Rel
Hum
%
Delta-T
°C
Wind Press
QNH
hPa
Press
MSL
hPa
Rain
since 9 am
mm
Dir
 
Spd
km/h
Gust
km/h
Spd
kts
Gust
kts
23/11:30pm 24.6 20.4 8.1 35 8.9 ENE 20 28 11 15 1018.9 1018.2 0.0
23/11:00pm 23.1 19.7 7.6 37 8.2 E 15 17 8 9 1018.9 1018.2 0.0
23/10:30pm 24.9 22.1 8.4 35 8.9 ESE 13 17 7 9 1018.6 1017.9 0.0
23/10:00pm 25.2 22.3 9.5 37 8.7 ESE 15 24 8 13 1018.5 1017.8 0.0
23/09:30pm 24.3 21.6 9.1 38 8.3 E 13 15 7 8 1017.9 1017.2 0.0
23/09:00pm 24.6 21.4 8.5 36 8.7 ENE 15 17 8 9 1017.5 1016.8 0.0
23/08:30pm 25.1 22.0 9.0 36 8.8 ENE 15 17 8 9 1017.1 1016.3 0.0
23/08:00pm 25.7 22.8 9.5 36 9.0 E 15 19 8 10 1016.8 1016.0 0.0
23/07:30pm 26.2 23.9 10.4 37 8.9 E 13 17 7 9 1016.6 1015.8 0.0
23/07:00pm 27.5 24.4 8.9 31 10.3 E 15 22 8 12 1016.4 1015.6 0.0
23/06:30pm 28.6 24.9 7.8 27 11.4 ESE 17 22 9 12 1016.3 1015.5 0.0
23/06:00pm 28.8 24.7 8.5 28 11.2 ESE 20 28 11 15 1016.1 1015.4 0.0
23/05:30pm 30.4 26.0 7.6 24 12.5 S 20 41 11 22 1016.1 1015.4 0.0
23/05:00pm 32.3 28.3 6.5 20 14.1 SW 17 22 9 12 1015.7 1015.0 0.0
23/04:30pm 32.6 28.8 7.4 21 14.0 WSW 17 26 9 14 1016.0 1015.3 0.0
23/04:00pm 31.6 28.0 6.6 21 13.6 SW 15 24 8 13 1016.1 1015.4 0.0
23/03:30pm 31.8 29.1 7.5 22 13.4 W 11 19 6 10 1016.5 1015.7 0.0
23/03:00pm 31.4 28.6 7.1 22 13.3 S 11 20 6 11 1016.9 1016.1 0.0
23/02:30pm 31.0 28.5 8.1 24 12.7 NW 11 20 6 11 1017.4 1016.7 0.0
23/02:00pm 30.9 28.0 8.0 24 12.7 NW 13 28 7 15 1018.1 1017.4 0.0
23/01:30pm 30.2 26.3 8.6 26 12.1 W 19 26 10 14 1018.8 1018.1 0.0
23/01:00pm 29.4 25.7 9.5 29 11.2 NW 19 30 10 16 1019.4 1018.7 0.0
23/12:30pm 28.8 26.0 10.0 31 10.7 NW 15 33 8 18 1019.9 1019.2 0.0
23/12:00pm 28.1 23.4 9.4 31 10.4 N 24 35 13 19 1020.3 1019.6 0.0
23/11:30am 27.5 22.9 9.8 33 10.0 N 24 33 13 18 1020.6 1019.9 0.0
23/11:00am 26.9 22.3 9.7 34 9.6 N 24 35 13 19 1021.0 1020.3 0.0
23/10:30am 26.0 20.7 9.8 36 9.0 N 28 35 15 19 1021.1 1020.4 0.0
23/10:00am 24.6 20.0 9.7 39 8.2 N 24 32 13 17 1021.3 1020.6 0.0
23/09:30am 24.6 19.9 9.3 38 8.4 N 24 28 13 15 1021.1 1020.4 0.0
23/09:00am 23.4 18.0 9.4 41 7.6 N 28 39 15 21 1021.0 1020.3 0.0
23/08:30am 22.3 16.0 9.1 43 7.1 N 32 41 17 22 1020.5 1019.8 0.0
23/08:00am 21.5 15.2 9.1 45 6.7 N 32 41 17 22 1020.2 1019.5 0.0
23/07:30am 20.7 13.8 9.0 47 6.3 N 35 46 19 25 1020.1 1019.4 0.0
23/07:00am 20.1 14.1 8.8 48 6.0 N 30 41 16 22 1019.9 1019.2 0.0

Other Formats:

Comma delimited format used in spreadsheet applications
http://www.bom.gov.au/fwo/IDN60801/IDN60801.95734.axf

JavaScript Object Notation format (JSON) in row-major order
http://www.bom.gov.au/fwo/IDN60801/IDN60801.95734.json